sensor_id;sensor_type;location;lat;lon;timestamp;temperature;humidity
16955;DHT22;8594;52.052;8.354;2023-06-22T07:36:43;24.30;99.90
16955;DHT22;8594;52.052;8.354;2023-06-22T07:39:11;24.30;99.90
16955;DHT22;8594;52.052;8.354;2023-06-22T07:41:39;24.40;99.90
16955;DHT22;8594;52.052;8.354;2023-06-22T07:44:06;24.40;99.90
16955;DHT22;8594;52.052;8.354;2023-06-22T07:46:33;24.50;99.90
16955;DHT22;8594;52.052;8.354;2023-06-22T07:49:00;24.40;99.90
16955;DHT22;8594;52.052;8.354;2023-06-22T07:51:28;24.40;99.90
16955;DHT22;8594;52.052;8.354;2023-06-22T07:53:56;24.40;99.90
16955;DHT22;8594;52.052;8.354;2023-06-22T07:56:22;24.30;99.90
16955;DHT22;8594;52.052;8.354;2023-06-22T07:58:49;24.40;99.90
16955;DHT22;8594;52.052;8.354;2023-06-22T08:01:17;24.40;99.90
16955;DHT22;8594;52.052;8.354;2023-06-22T08:03:47;24.50;99.90
16955;DHT22;8594;52.052;8.354;2023-06-22T08:06:14;24.50;99.90
16955;DHT22;8594;52.052;8.354;2023-06-22T08:08:41;24.50;99.90
16955;DHT22;8594;52.052;8.354;2023-06-22T08:11:10;24.50;99.90
16955;DHT22;8594;52.052;8.354;2023-06-22T08:13:37;24.50;99.90
16955;DHT22;8594;52.052;8.354;2023-06-22T08:16:04;24.70;99.90
16955;DHT22;8594;52.052;8.354;2023-06-22T08:18:32;24.80;99.90
16955;DHT22;8594;52.052;8.354;2023-06-22T08:20:59;24.80;99.90
16955;DHT22;8594;52.052;8.354;2023-06-22T08:23:26;24.90;99.90
16955;DHT22;8594;52.052;8.354;2023-06-22T08:25:53;24.90;99.90
16955;DHT22;8594;52.052;8.354;2023-06-22T08:28:21;25.00;99.90
16955;DHT22;8594;52.052;8.354;2023-06-22T08:30:48;25.10;99.90
16955;DHT22;8594;52.052;8.354;2023-06-22T08:33:15;25.20;99.90
16955;DHT22;8594;52.052;8.354;2023-06-22T08:35:43;25.30;99.90
16955;DHT22;8594;52.052;8.354;2023-06-22T08:38:10;25.40;99.90
16955;DHT22;8594;52.052;8.354;2023-06-22T08:40:41;25.60;99.90
16955;DHT22;8594;52.052;8.354;2023-06-22T08:43:07;25.90;99.90
16955;DHT22;8594;52.052;8.354;2023-06-22T08:45:35;26.00;99.90
16955;DHT22;8594;52.052;8.354;2023-06-22T08:48:02;26.10;99.90
16955;DHT22;8594;52.052;8.354;2023-06-22T08:50:29;26.10;99.90
16955;DHT22;8594;52.052;8.354;2023-06-22T08:52:56;26.20;99.90
16955;DHT22;8594;52.052;8.354;2023-06-22T08:55:23;26.30;99.90
16955;DHT22;8594;52.052;8.354;2023-06-22T08:57:50;26.20;99.90
16955;DHT22;8594;52.052;8.354;2023-06-22T09:00:17;26.40;99.90
16955;DHT22;8594;52.052;8.354;2023-06-22T09:02:47;26.50;99.90
16955;DHT22;8594;52.052;8.354;2023-06-22T09:05:15;26.40;99.90
16955;DHT22;8594;52.052;8.354;2023-06-22T09:07:42;26.50;99.90
16955;DHT22;8594;52.052;8.354;2023-06-22T09:10:09;26.60;99.90
16955;DHT22;8594;52.052;8.354;2023-06-22T09:12:36;26.70;99.90
16955;DHT22;8594;52.052;8.354;2023-06-22T09:15:04;26.70;99.90
16955;DHT22;8594;52.052;8.354;2023-06-22T09:17:33;26.70;99.90
16955;DHT22;8594;52.052;8.354;2023-06-22T09:20:02;26.90;99.90
16955;DHT22;8594;52.052;8.354;2023-06-22T09:36:31;26.90;99.90
16955;DHT22;8594;52.052;8.354;2023-06-22T09:38:57;28.00;99.90
16955;DHT22;8594;52.052;8.354;2023-06-22T09:41:24;28.20;99.90
16955;DHT22;8594;52.052;8.354;2023-06-22T09:43:51;28.20;99.90
16955;DHT22;8594;52.052;8.354;2023-06-22T09:46:18;28.40;99.90
16955;DHT22;8594;52.052;8.354;2023-06-22T09:48:47;28.20;99.90
16955;DHT22;8594;52.052;8.354;2023-06-22T09:51:14;28.40;99.90
16955;DHT22;8594;52.052;8.354;2023-06-22T09:53:42;28.40;99.90
16955;DHT22;8594;52.052;8.354;2023-06-22T09:56:09;28.40;99.90
16955;DHT22;8594;52.052;8.354;2023-06-22T09:58:40;28.70;99.90
16955;DHT22;8594;52.052;8.354;2023-06-22T10:01:07;28.80;99.90
16955;DHT22;8594;52.052;8.354;2023-06-22T10:03:35;28.80;99.90
16955;DHT22;8594;52.052;8.354;2023-06-22T10:06:02;28.90;99.90
16955;DHT22;8594;52.052;8.354;2023-06-22T10:08:29;28.90;99.90
16955;DHT22;8594;52.052;8.354;2023-06-22T10:10:58;28.80;99.90
16955;DHT22;8594;52.052;8.354;2023-06-22T10:13:25;28.70;99.90
16955;DHT22;8594;52.052;8.354;2023-06-22T10:15:52;28.70;99.90
16955;DHT22;8594;52.052;8.354;2023-06-22T10:18:19;28.80;99.90
16955;DHT22;8594;52.052;8.354;2023-06-22T10:20:49;29.00;99.90
16955;DHT22;8594;52.052;8.354;2023-06-22T10:23:17;28.90;99.90
16955;DHT22;8594;52.052;8.354;2023-06-22T10:25:44;28.90;99.90
16955;DHT22;8594;52.052;8.354;2023-06-22T10:28:12;28.90;99.90
16955;DHT22;8594;52.052;8.354;2023-06-22T10:30:40;28.70;99.90
16955;DHT22;8594;52.052;8.354;2023-06-22T10:33:07;28.50;99.90
16955;DHT22;8594;52.052;8.354;2023-06-22T10:35:34;28.00;99.90
16955;DHT22;8594;52.052;8.354;2023-06-22T10:38:03;27.90;99.90
16955;DHT22;8594;52.052;8.354;2023-06-22T10:40:30;28.00;99.90
16955;DHT22;8594;52.052;8.354;2023-06-22T10:42:57;28.00;99.90
16955;DHT22;8594;52.052;8.354;2023-06-22T10:45:25;28.00;99.90
16955;DHT22;8594;52.052;8.354;2023-06-22T10:47:53;28.30;99.90
16955;DHT22;8594;52.052;8.354;2023-06-22T10:50:20;28.30;99.90
16955;DHT22;8594;52.052;8.354;2023-06-22T10:52:49;28.40;99.90
16955;DHT22;8594;52.052;8.354;2023-06-22T10:55:16;28.60;99.90
16955;DHT22;8594;52.052;8.354;2023-06-22T10:57:43;28.80;99.90
16955;DHT22;8594;52.052;8.354;2023-06-22T11:00:13;29.00;99.90
16955;DHT22;8594;52.052;8.354;2023-06-22T11:02:42;28.90;99.90
16955;DHT22;8594;52.052;8.354;2023-06-22T11:05:09;28.80;99.90
16955;DHT22;8594;52.052;8.354;2023-06-22T11:07:37;28.70;99.90
16955;DHT22;8594;52.052;8.354;2023-06-22T11:10:05;28.60;99.90
16955;DHT22;8594;52.052;8.354;2023-06-22T11:12:33;28.40;99.90
16955;DHT22;8594;52.052;8.354;2023-06-22T11:14:59;28.40;99.90
16955;DHT22;8594;52.052;8.354;2023-06-22T11:17:26;28.40;99.90
16955;DHT22;8594;52.052;8.354;2023-06-22T11:19:54;28.20;99.90
16955;DHT22;8594;52.052;8.354;2023-06-22T11:22:21;28.10;99.90
16955;DHT22;8594;52.052;8.354;2023-06-22T11:24:48;27.70;99.90
16955;DHT22;8594;52.052;8.354;2023-06-22T11:27:15;27.80;99.90
16955;DHT22;8594;52.052;8.354;2023-06-22T11:29:42;28.00;99.90
16955;DHT22;8594;52.052;8.354;2023-06-22T11:32:09;28.20;99.90
16955;DHT22;8594;52.052;8.354;2023-06-22T11:34:35;28.40;99.90
16955;DHT22;8594;52.052;8.354;2023-06-22T11:37:04;28.50;99.90
16955;DHT22;8594;52.052;8.354;2023-06-22T11:39:31;28.50;99.90
16955;DHT22;8594;52.052;8.354;2023-06-22T11:41:58;28.40;99.90
16955;DHT22;8594;52.052;8.354;2023-06-22T11:44:24;28.50;99.90
16955;DHT22;8594;52.052;8.354;2023-06-22T11:46:51;28.50;99.90
16955;DHT22;8594;52.052;8.354;2023-06-22T11:49:18;28.40;99.90
16955;DHT22;8594;52.052;8.354;2023-06-22T11:51:45;28.50;99.90
16955;DHT22;8594;52.052;8.354;2023-06-22T11:54:13;28.50;99.90
16955;DHT22;8594;52.052;8.354;2023-06-22T11:56:40;28.40;99.90
16955;DHT22;8594;52.052;8.354;2023-06-22T11:59:07;28.30;99.90
16955;DHT22;8594;52.052;8.354;2023-06-22T12:01:33;28.40;99.90
16955;DHT22;8594;52.052;8.354;2023-06-22T12:04:00;28.40;99.90
16955;DHT22;8594;52.052;8.354;2023-06-22T12:06:30;28.50;99.90
16955;DHT22;8594;52.052;8.354;2023-06-22T12:08:57;28.60;99.90
16955;DHT22;8594;52.052;8.354;2023-06-22T12:11:26;28.60;99.90
16955;DHT22;8594;52.052;8.354;2023-06-22T12:13:52;28.60;99.90
16955;DHT22;8594;52.052;8.354;2023-06-22T12:16:19;28.60;99.90
16955;DHT22;8594;52.052;8.354;2023-06-22T12:18:47;28.50;99.90
16955;DHT22;8594;52.052;8.354;2023-06-22T12:21:14;28.50;99.90
16955;DHT22;8594;52.052;8.354;2023-06-22T12:23:41;28.60;99.90
16955;DHT22;8594;52.052;8.354;2023-06-22T12:26:07;28.10;99.90
16955;DHT22;8594;52.052;8.354;2023-06-22T12:28:35;28.10;99.90
16955;DHT22;8594;52.052;8.354;2023-06-22T12:31:02;28.00;99.90
16955;DHT22;8594;52.052;8.354;2023-06-22T12:33:29;28.00;99.90
16955;DHT22;8594;52.052;8.354;2023-06-22T12:35:56;27.90;99.90
16955;DHT22;8594;52.052;8.354;2023-06-22T12:38:23;27.90;99.90
16955;DHT22;8594;52.052;8.354;2023-06-22T12:40:51;27.70;99.90
16955;DHT22;8594;52.052;8.354;2023-06-22T12:43:18;27.80;99.90
16955;DHT22;8594;52.052;8.354;2023-06-22T12:45:46;27.80;99.90
16955;DHT22;8594;52.052;8.354;2023-06-22T12:48:12;27.80;99.90
16955;DHT22;8594;52.052;8.354;2023-06-22T12:50:39;27.70;99.90
16955;DHT22;8594;52.052;8.354;2023-06-22T12:53:06;27.70;99.90
16955;DHT22;8594;52.052;8.354;2023-06-22T12:55:33;27.70;99.90
16955;DHT22;8594;52.052;8.354;2023-06-22T12:58:00;27.70;99.90
16955;DHT22;8594;52.052;8.354;2023-06-22T13:00:26;27.60;99.90
16955;DHT22;8594;52.052;8.354;2023-06-22T13:02:55;27.60;99.90
16955;DHT22;8594;52.052;8.354;2023-06-22T13:05:21;27.50;99.90
16955;DHT22;8594;52.052;8.354;2023-06-22T13:07:48;27.30;99.90
16955;DHT22;8594;52.052;8.354;2023-06-22T13:10:15;27.20;99.90
16955;DHT22;8594;52.052;8.354;2023-06-22T13:12:42;27.00;99.90
16955;DHT22;8594;52.052;8.354;2023-06-22T13:15:09;27.00;99.90
16955;DHT22;8594;52.052;8.354;2023-06-22T13:17:36;26.90;99.90
16955;DHT22;8594;52.052;8.354;2023-06-22T13:20:05;26.60;99.90
16955;DHT22;8594;52.052;8.354;2023-06-22T13:22:34;26.10;99.90
16955;DHT22;8594;52.052;8.354;2023-06-22T13:25:07;26.00;99.90
16955;DHT22;8594;52.052;8.354;2023-06-22T13:27:37;26.00;99.90
16955;DHT22;8594;52.052;8.354;2023-06-22T13:30:05;26.10;99.90
16955;DHT22;8594;52.052;8.354;2023-06-22T13:32:33;26.20;99.90
16955;DHT22;8594;52.052;8.354;2023-06-22T13:35:00;26.10;99.90
16955;DHT22;8594;52.052;8.354;2023-06-22T13:37:28;25.90;99.90
16955;DHT22;8594;52.052;8.354;2023-06-22T13:39:55;25.90;99.90
16955;DHT22;8594;52.052;8.354;2023-06-22T13:42:24;25.90;99.90
16955;DHT22;8594;52.052;8.354;2023-06-22T13:44:51;26.00;99.90
16955;DHT22;8594;52.052;8.354;2023-06-22T13:47:18;26.00;99.90
16955;DHT22;8594;52.052;8.354;2023-06-22T13:49:45;25.90;99.90
16955;DHT22;8594;52.052;8.354;2023-06-22T13:52:11;25.90;99.90
16955;DHT22;8594;52.052;8.354;2023-06-22T13:54:39;25.60;99.90
16955;DHT22;8594;52.052;8.354;2023-06-22T13:57:07;25.60;99.90
16955;DHT22;8594;52.052;8.354;2023-06-22T13:59:35;25.80;99.90
16955;DHT22;8594;52.052;8.354;2023-06-22T14:02:01;25.90;99.90
16955;DHT22;8594;52.052;8.354;2023-06-22T14:04:28;25.80;99.90
16955;DHT22;8594;52.052;8.354;2023-06-22T14:06:55;25.40;99.90
16955;DHT22;8594;52.052;8.354;2023-06-22T14:09:22;24.90;99.90
16955;DHT22;8594;52.052;8.354;2023-06-22T14:11:50;24.60;99.90
16955;DHT22;8594;52.052;8.354;2023-06-22T14:14:17;24.50;99.90
16955;DHT22;8594;52.052;8.354;2023-06-22T14:16:44;24.40;99.90
16955;DHT22;8594;52.052;8.354;2023-06-22T14:19:10;24.30;99.90
16955;DHT22;8594;52.052;8.354;2023-06-22T14:21:37;24.10;99.90
16955;DHT22;8594;52.052;8.354;2023-06-22T14:24:04;24.00;99.90
16955;DHT22;8594;52.052;8.354;2023-06-22T14:26:31;24.00;99.90
16955;DHT22;8594;52.052;8.354;2023-06-22T14:28:59;23.90;99.90
16955;DHT22;8594;52.052;8.354;2023-06-22T14:31:26;23.90;99.90
16955;DHT22;8594;52.052;8.354;2023-06-22T14:33:53;23.90;99.90
16955;DHT22;8594;52.052;8.354;2023-06-22T14:36:19;23.70;99.90
16955;DHT22;8594;52.052;8.354;2023-06-22T14:38:46;23.70;99.90
16955;DHT22;8594;52.052;8.354;2023-06-22T14:41:13;23.60;99.90
16955;DHT22;8594;52.052;8.354;2023-06-22T14:43:45;23.40;99.90
16955;DHT22;8594;52.052;8.354;2023-06-22T14:46:14;23.40;99.90
16955;DHT22;8594;52.052;8.354;2023-06-22T14:48:41;23.30;99.90
16955;DHT22;8594;52.052;8.354;2023-06-22T14:51:08;23.10;99.90
16955;DHT22;8594;52.052;8.354;2023-06-22T14:53:35;23.10;99.90
16955;DHT22;8594;52.052;8.354;2023-06-22T14:56:02;23.00;99.90
16955;DHT22;8594;52.052;8.354;2023-06-22T14:58:30;22.90;99.90
16955;DHT22;8594;52.052;8.354;2023-06-22T15:00:59;22.90;99.90
16955;DHT22;8594;52.052;8.354;2023-06-22T15:03:27;22.90;99.90
16955;DHT22;8594;52.052;8.354;2023-06-22T15:05:56;22.90;99.90
16955;DHT22;8594;52.052;8.354;2023-06-22T15:08:23;22.80;99.90
16955;DHT22;8594;52.052;8.354;2023-06-22T15:10:51;22.80;99.90
16955;DHT22;8594;52.052;8.354;2023-06-22T15:13:17;22.80;99.90
16955;DHT22;8594;52.052;8.354;2023-06-22T15:15:46;22.80;99.90
16955;DHT22;8594;52.052;8.354;2023-06-22T15:18:13;22.80;99.90
16955;DHT22;8594;52.052;8.354;2023-06-22T15:20:42;22.70;99.90
16955;DHT22;8594;52.052;8.354;2023-06-22T15:23:11;22.80;99.90
16955;DHT22;8594;52.052;8.354;2023-06-22T15:25:37;22.80;99.90
16955;DHT22;8594;52.052;8.354;2023-06-22T15:28:04;22.90;99.90
16955;DHT22;8594;52.052;8.354;2023-06-22T15:30:31;22.90;99.90
16955;DHT22;8594;52.052;8.354;2023-06-22T15:32:58;22.90;99.90
16955;DHT22;8594;52.052;8.354;2023-06-22T15:35:26;22.90;99.90
16955;DHT22;8594;52.052;8.354;2023-06-22T15:37:54;22.80;99.90
16955;DHT22;8594;52.052;8.354;2023-06-22T15:40:21;22.90;99.90
16955;DHT22;8594;52.052;8.354;2023-06-22T15:42:49;23.00;99.90
16955;DHT22;8594;52.052;8.354;2023-06-22T15:45:17;23.00;99.90
16955;DHT22;8594;52.052;8.354;2023-06-22T15:47:44;23.10;99.90
16955;DHT22;8594;52.052;8.354;2023-06-22T15:50:10;23.00;99.90
16955;DHT22;8594;52.052;8.354;2023-06-22T15:52:37;23.10;99.90
16955;DHT22;8594;52.052;8.354;2023-06-22T15:55:08;23.20;99.90
16955;DHT22;8594;52.052;8.354;2023-06-22T15:57:35;23.20;99.90
16955;DHT22;8594;52.052;8.354;2023-06-22T16:00:02;23.20;99.90
16955;DHT22;8594;52.052;8.354;2023-06-22T16:02:31;23.40;99.90
16955;DHT22;8594;52.052;8.354;2023-06-22T16:04:58;23.60;99.90
16955;DHT22;8594;52.052;8.354;2023-06-22T16:07:24;23.70;99.90
16955;DHT22;8594;52.052;8.354;2023-06-22T16:09:52;23.70;99.90
16955;DHT22;8594;52.052;8.354;2023-06-22T16:12:20;23.70;99.90
16955;DHT22;8594;52.052;8.354;2023-06-22T16:14:47;23.90;99.90
16955;DHT22;8594;52.052;8.354;2023-06-22T16:17:14;23.70;99.90
16955;DHT22;8594;52.052;8.354;2023-06-22T16:19:41;23.70;99.90
16955;DHT22;8594;52.052;8.354;2023-06-22T16:22:08;23.90;99.90
16955;DHT22;8594;52.052;8.354;2023-06-22T16:24:35;23.90;99.90
16955;DHT22;8594;52.052;8.354;2023-06-22T16:27:02;23.80;99.90
16955;DHT22;8594;52.052;8.354;2023-06-22T16:29:30;23.80;99.90
16955;DHT22;8594;52.052;8.354;2023-06-22T16:31:57;23.80;99.90
16955;DHT22;8594;52.052;8.354;2023-06-22T16:34:23;23.70;99.90
16955;DHT22;8594;52.052;8.354;2023-06-22T16:36:50;23.70;99.90
16955;DHT22;8594;52.052;8.354;2023-06-22T16:39:17;23.60;99.90
16955;DHT22;8594;52.052;8.354;2023-06-22T16:41:44;23.50;99.90
16955;DHT22;8594;52.052;8.354;2023-06-22T16:44:11;23.40;99.90
16955;DHT22;8594;52.052;8.354;2023-06-22T16:46:39;23.40;99.90
16955;DHT22;8594;52.052;8.354;2023-06-22T16:49:06;23.40;99.90
16955;DHT22;8594;52.052;8.354;2023-06-22T16:51:33;23.40;99.90
16955;DHT22;8594;52.052;8.354;2023-06-22T16:53:59;23.40;99.90
16955;DHT22;8594;52.052;8.354;2023-06-22T16:56:27;23.30;99.90
16955;DHT22;8594;52.052;8.354;2023-06-22T16:58:57;23.40;99.90
16955;DHT22;8594;52.052;8.354;2023-06-22T17:01:25;23.40;99.90
16955;DHT22;8594;52.052;8.354;2023-06-22T17:04:01;23.40;99.90
16955;DHT22;8594;52.052;8.354;2023-06-22T17:06:30;23.50;99.90
16955;DHT22;8594;52.052;8.354;2023-06-22T17:08:59;23.50;99.90
16955;DHT22;8594;52.052;8.354;2023-06-22T17:11:29;23.50;99.90
16955;DHT22;8594;52.052;8.354;2023-06-22T17:13:57;23.50;99.90
16955;DHT22;8594;52.052;8.354;2023-06-22T17:16:25;23.40;99.90
16955;DHT22;8594;52.052;8.354;2023-06-22T17:18:57;23.30;99.90
16955;DHT22;8594;52.052;8.354;2023-06-22T17:21:29;23.20;99.90
16955;DHT22;8594;52.052;8.354;2023-06-22T17:24:00;23.10;99.90
16955;DHT22;8594;52.052;8.354;2023-06-22T17:26:30;23.20;99.90
16955;DHT22;8594;52.052;8.354;2023-06-22T17:28:57;23.30;99.90
16955;DHT22;8594;52.052;8.354;2023-06-22T17:31:35;23.20;99.90
16955;DHT22;8594;52.052;8.354;2023-06-22T17:34:08;23.10;99.90
16955;DHT22;8594;52.052;8.354;2023-06-22T17:36:43;22.90;99.90
16955;DHT22;8594;52.052;8.354;2023-06-22T17:39:11;22.80;99.90
16955;DHT22;8594;52.052;8.354;2023-06-22T17:41:40;22.80;99.90
16955;DHT22;8594;52.052;8.354;2023-06-22T17:44:08;22.80;99.90
16955;DHT22;8594;52.052;8.354;2023-06-22T17:46:38;22.70;99.90
16955;DHT22;8594;52.052;8.354;2023-06-22T17:49:08;22.50;99.90
16955;DHT22;8594;52.052;8.354;2023-06-22T17:51:36;22.50;99.90
16955;DHT22;8594;52.052;8.354;2023-06-22T17:54:05;22.50;99.90
16955;DHT22;8594;52.052;8.354;2023-06-22T17:56:32;22.40;99.90
16955;DHT22;8594;52.052;8.354;2023-06-22T17:59:00;22.50;99.90
16955;DHT22;8594;52.052;8.354;2023-06-22T18:01:31;22.40;99.90
16955;DHT22;8594;52.052;8.354;2023-06-22T18:04:04;22.30;99.90
16955;DHT22;8594;52.052;8.354;2023-06-22T18:06:35;22.30;99.90
16955;DHT22;8594;52.052;8.354;2023-06-22T18:09:04;22.30;99.90
16955;DHT22;8594;52.052;8.354;2023-06-22T18:11:33;22.20;99.90
16955;DHT22;8594;52.052;8.354;2023-06-22T18:14:02;22.20;99.90
16955;DHT22;8594;52.052;8.354;2023-06-22T18:16:32;22.00;99.90
16955;DHT22;8594;52.052;8.354;2023-06-22T18:19:01;21.90;99.90
16955;DHT22;8594;52.052;8.354;2023-06-22T18:21:29;21.90;99.90
16955;DHT22;8594;52.052;8.354;2023-06-22T18:23:58;21.80;99.90
16955;DHT22;8594;52.052;8.354;2023-06-22T18:26:26;21.60;99.90
16955;DHT22;8594;52.052;8.354;2023-06-22T18:28:54;21.60;99.90
16955;DHT22;8594;52.052;8.354;2023-06-22T18:31:23;21.50;99.90
16955;DHT22;8594;52.052;8.354;2023-06-22T18:33:52;21.50;99.90
16955;DHT22;8594;52.052;8.354;2023-06-22T18:36:24;21.50;99.90
16955;DHT22;8594;52.052;8.354;2023-06-22T18:38:53;21.50;99.90
16955;DHT22;8594;52.052;8.354;2023-06-22T18:41:24;21.50;99.90
16955;DHT22;8594;52.052;8.354;2023-06-22T18:44:00;21.40;99.90
16955;DHT22;8594;52.052;8.354;2023-06-22T18:46:34;21.40;99.90
16955;DHT22;8594;52.052;8.354;2023-06-22T18:49:10;21.40;99.90
16955;DHT22;8594;52.052;8.354;2023-06-22T18:51:52;21.50;99.90
16955;DHT22;8594;52.052;8.354;2023-06-22T18:54:22;21.30;99.90
16955;DHT22;8594;52.052;8.354;2023-06-22T18:56:57;21.30;99.90
16955;DHT22;8594;52.052;8.354;2023-06-22T18:59:43;21.40;99.90
16955;DHT22;8594;52.052;8.354;2023-06-22T19:02:15;21.30;99.90
16955;DHT22;8594;52.052;8.354;2023-06-22T19:05:05;21.30;99.90
16955;DHT22;8594;52.052;8.354;2023-06-22T19:08:01;21.30;99.90
16955;DHT22;8594;52.052;8.354;2023-06-22T19:10:40;21.30;99.90
16955;DHT22;8594;52.052;8.354;2023-06-22T19:13:49;21.20;99.90
16955;DHT22;8594;52.052;8.354;2023-06-22T19:16:29;21.30;99.90
16955;DHT22;8594;52.052;8.354;2023-06-22T19:19:21;21.20;99.90
16955;DHT22;8594;52.052;8.354;2023-06-22T19:22:00;21.30;99.90
16955;DHT22;8594;52.052;8.354;2023-06-22T19:24:30;21.20;99.90
16955;DHT22;8594;52.052;8.354;2023-06-22T19:26:57;21.30;99.90
16955;DHT22;8594;52.052;8.354;2023-06-22T19:29:57;21.40;99.90
16955;DHT22;8594;52.052;8.354;2023-06-22T19:32:40;21.40;99.90
16955;DHT22;8594;52.052;8.354;2023-06-22T19:35:17;21.40;99.90
16955;DHT22;8594;52.052;8.354;2023-06-22T19:37:57;21.40;99.90
16955;DHT22;8594;52.052;8.354;2023-06-22T19:40:45;21.30;99.90
16955;DHT22;8594;52.052;8.354;2023-06-22T19:43:18;21.30;99.90
16955;DHT22;8594;52.052;8.354;2023-06-22T19:46:39;21.30;99.90
16955;DHT22;8594;52.052;8.354;2023-06-22T19:49:46;21.30;99.90
16955;DHT22;8594;52.052;8.354;2023-06-22T19:52:36;21.30;99.90
16955;DHT22;8594;52.052;8.354;2023-06-22T19:55:11;21.50;99.90
16955;DHT22;8594;52.052;8.354;2023-06-22T19:57:46;21.40;99.90
16955;DHT22;8594;52.052;8.354;2023-06-22T20:00:23;21.50;99.90
16955;DHT22;8594;52.052;8.354;2023-06-22T20:03:15;21.50;99.90
16955;DHT22;8594;52.052;8.354;2023-06-22T20:07:06;21.60;99.90
16955;DHT22;8594;52.052;8.354;2023-06-22T20:10:09;21.50;99.90
